createdAt,value
2019-02-16T00:00:45.146Z,-0.20
2019-02-16T00:06:47.355Z,-0.10
2019-02-16T00:12:49.620Z,-0.20
2019-02-16T00:18:51.782Z,-0.20
2019-02-16T00:24:53.974Z,-0.20
2019-02-16T00:30:56.149Z,-0.10
2019-02-16T00:36:58.383Z,-0.30
2019-02-16T00:43:00.750Z,-0.40
2019-02-16T00:49:02.995Z,-0.50
2019-02-16T00:55:07.144Z,-0.40
2019-02-16T01:01:09.360Z,-0.50
2019-02-16T01:07:11.615Z,-0.60
2019-02-16T01:13:13.975Z,-0.70
2019-02-16T01:19:16.108Z,-0.70
2019-02-16T01:25:18.345Z,-0.60
2019-02-16T01:31:20.624Z,-0.60
2019-02-16T01:37:22.967Z,-0.70
2019-02-16T01:43:25.133Z,-0.60
2019-02-16T01:49:27.270Z,-0.70
2019-02-16T01:55:29.456Z,-0.70
2019-02-16T02:01:33.269Z,-0.80
2019-02-16T02:07:35.439Z,-0.90
2019-02-16T02:13:37.707Z,-1.00
2019-02-16T02:19:39.855Z,-1.00
2019-02-16T02:25:42.065Z,-1.00
2019-02-16T02:31:45.858Z,-0.90
2019-02-16T02:37:48.127Z,-0.90
2019-02-16T02:43:50.492Z,-0.90
2019-02-16T02:49:52.896Z,-0.90
2019-02-16T02:55:55.064Z,-0.90
2019-02-16T03:01:57.221Z,-1.10
2019-02-16T03:08:00.639Z,-1.10
2019-02-16T03:14:02.912Z,-1.20
2019-02-16T03:20:05.327Z,-1.30
2019-02-16T03:26:42.134Z,-1.40
2019-02-16T03:33:16.681Z,-1.50
2019-02-16T03:39:22.023Z,-1.50
2019-02-16T03:45:24.266Z,-1.60
2019-02-16T03:51:26.467Z,-1.70
2019-02-16T03:57:28.704Z,-1.70
2019-02-16T04:03:30.948Z,-1.70
2019-02-16T04:09:33.323Z,-1.70
2019-02-16T04:15:35.609Z,-1.80
2019-02-16T04:21:37.797Z,-1.90
2019-02-16T04:27:40.051Z,-1.90
2019-02-16T04:33:42.548Z,-2.00
2019-02-16T04:39:44.728Z,-2.00
2019-02-16T04:45:47.237Z,-2.00
2019-02-16T04:51:49.530Z,-2.10
2019-02-16T04:57:51.807Z,-2.10
2019-02-16T05:03:54.306Z,-2.10
2019-02-16T05:09:56.616Z,-2.00
2019-02-16T05:16:00.174Z,-2.00
2019-02-16T05:22:02.373Z,-2.10
2019-02-16T05:28:04.580Z,-2.20
2019-02-16T05:34:06.776Z,-2.10
2019-02-16T05:40:08.987Z,-2.20
2019-02-16T05:46:11.403Z,-2.10
2019-02-16T05:52:13.677Z,-2.10
2019-02-16T05:58:15.876Z,-2.00
2019-02-16T06:04:18.482Z,-2.10
2019-02-16T06:10:20.767Z,-2.10
2019-02-16T06:16:23.056Z,-2.10
2019-02-16T06:22:25.355Z,-1.90
2019-02-16T06:28:28.723Z,-1.90
2019-02-16T06:34:32.463Z,-1.80
2019-02-16T06:40:34.752Z,-1.70
2019-02-16T06:46:36.920Z,-1.60
2019-02-16T06:52:39.138Z,-1.50
2019-02-16T06:58:41.337Z,-1.40
2019-02-16T07:04:43.567Z,-1.10
2019-02-16T07:10:45.732Z,-0.80
2019-02-16T07:16:55.994Z,-0.60
2019-02-16T07:23:00.343Z,-0.40
2019-02-16T07:29:02.709Z,-0.20
2019-02-16T07:35:05.730Z,0.10
2019-02-16T07:41:07.993Z,0.20
2019-02-16T07:47:15.074Z,0.60
2019-02-16T07:53:34.601Z,1.40
2019-02-16T07:59:56.859Z,2.70
2019-02-16T08:06:10.204Z,3.80
2019-02-16T08:12:14.334Z,4.90
2019-02-16T08:18:18.431Z,5.80
2019-02-16T08:24:22.660Z,6.50
2019-02-16T08:30:26.808Z,6.10
2019-02-16T08:36:42.193Z,7.00
2019-02-16T08:42:46.444Z,8.50
2019-02-16T08:48:53.533Z,8.00
2019-02-16T08:55:00.824Z,8.00
2019-02-16T09:01:13.943Z,9.70
2019-02-16T09:07:18.002Z,10.40
2019-02-16T09:13:22.036Z,10.70
2019-02-16T09:19:26.179Z,11.10
2019-02-16T09:25:32.509Z,10.90
2019-02-16T09:31:48.820Z,11.00
2019-02-16T09:37:53.000Z,11.40
2019-02-16T09:44:12.262Z,11.80
2019-02-16T09:50:22.392Z,11.20
2019-02-16T09:56:35.730Z,11.00
2019-02-16T10:02:56.281Z,11.10
2019-02-16T10:09:09.416Z,11.70
2019-02-16T10:15:28.777Z,11.80
2019-02-16T10:21:35.796Z,11.90
2019-02-16T10:27:56.637Z,12.20
2019-02-16T10:34:12.806Z,11.70
2019-02-16T10:40:19.863Z,11.80
2019-02-16T10:46:40.498Z,11.80
2019-02-16T10:52:53.651Z,11.70
2019-02-16T10:59:14.637Z,11.60
2019-02-16T11:05:21.736Z,11.60
2019-02-16T11:11:35.033Z,11.60
2019-02-16T11:17:39.222Z,11.50
2019-02-16T11:23:45.362Z,11.40
2019-02-16T11:29:54.346Z,11.40
2019-02-16T11:36:10.552Z,11.20
2019-02-16T11:42:31.472Z,11.60
2019-02-16T11:48:53.855Z,11.80
2019-02-16T11:54:58.145Z,12.00
2019-02-16T12:01:05.130Z,12.00
2019-02-16T12:07:27.572Z,11.90
2019-02-16T12:13:31.744Z,11.80
2019-02-16T12:19:35.834Z,11.70
2019-02-16T12:25:56.712Z,11.70
2019-02-16T12:32:15.503Z,11.80
2019-02-16T12:38:25.250Z,11.60
2019-02-16T12:44:35.353Z,11.50
2019-02-16T12:50:56.199Z,11.40
2019-02-16T12:57:02.441Z,11.40
2019-02-16T13:03:18.948Z,11.20
2019-02-16T13:09:40.393Z,11.40
2019-02-16T13:15:56.387Z,11.40
2019-02-16T13:22:01.379Z,11.40
2019-02-16T13:28:23.795Z,11.60
2019-02-16T13:34:28.956Z,11.70
2019-02-16T13:40:39.022Z,11.40
2019-02-16T13:46:43.220Z,11.30
2019-02-16T13:52:47.383Z,11.10
2019-02-16T13:58:54.465Z,11.10
2019-02-16T14:04:58.625Z,11.10
2019-02-16T14:11:29.383Z,11.20
2019-02-16T14:17:36.254Z,11.40
2019-02-16T14:23:38.545Z,11.40
2019-02-16T14:29:40.802Z,11.20
2019-02-16T14:35:43.287Z,11.20
2019-02-16T14:41:45.519Z,11.30
2019-02-16T14:47:47.889Z,11.30
2019-02-16T14:53:50.108Z,11.30
2019-02-16T14:59:52.345Z,11.30
2019-02-16T15:05:56.004Z,11.30
2019-02-16T15:11:58.432Z,11.20
2019-02-16T15:18:00.822Z,11.10
2019-02-16T15:24:03.167Z,10.90
2019-02-16T15:30:08.882Z,10.70
2019-02-16T15:36:11.287Z,10.50
2019-02-16T15:42:15.776Z,10.40
2019-02-16T15:48:20.141Z,10.10
2019-02-16T15:54:22.358Z,9.90
2019-02-16T16:00:28.334Z,9.60
2019-02-16T16:06:31.677Z,9.40
2019-02-16T16:12:44.702Z,9.10
2019-02-16T16:18:55.218Z,8.80
2019-02-16T16:25:03.323Z,8.30
2019-02-16T16:31:23.702Z,7.90
2019-02-16T16:37:41.423Z,7.50
2019-02-16T16:43:57.731Z,7.00
2019-02-16T16:50:04.571Z,6.70
2019-02-16T16:56:28.455Z,6.30
2019-02-16T17:02:45.286Z,5.90
2019-02-16T17:08:58.907Z,5.50
2019-02-16T17:15:11.996Z,5.20
2019-02-16T17:21:34.253Z,4.80
2019-02-16T17:27:55.125Z,4.50
2019-02-16T17:34:05.417Z,4.20
2019-02-16T17:40:29.213Z,4.00
2019-02-16T17:46:50.164Z,3.80
2019-02-16T17:52:55.246Z,3.60
2019-02-16T17:59:08.692Z,3.40
2019-02-16T18:05:30.949Z,3.30
2019-02-16T18:11:44.041Z,3.20
2019-02-16T18:17:54.063Z,3.10
2019-02-16T18:24:01.205Z,3.00
2019-02-16T18:30:08.434Z,2.80
2019-02-16T18:36:18.498Z,2.80
2019-02-16T18:42:39.627Z,2.60
2019-02-16T18:48:47.187Z,2.50
2019-02-16T18:55:10.645Z,2.40
2019-02-16T19:01:12.303Z,2.30
2019-02-16T19:07:18.994Z,2.20
2019-02-16T19:13:23.134Z,2.10
2019-02-16T19:19:27.289Z,2.00
2019-02-16T19:25:31.459Z,2.00
2019-02-16T19:31:44.640Z,1.90
2019-02-16T19:37:51.416Z,1.80
2019-02-16T19:50:14.320Z,1.70
2019-02-16T19:56:18.481Z,1.70
2019-02-16T20:08:40.786Z,1.60
2019-02-16T20:14:48.096Z,1.60
2019-02-16T20:20:52.200Z,1.60
2019-02-16T20:27:02.073Z,1.60
2019-02-16T20:33:15.129Z,1.40
2019-02-16T20:39:20.673Z,1.30
2019-02-16T20:45:26.877Z,1.30
2019-02-16T20:51:33.638Z,1.10
2019-02-16T20:57:49.943Z,1.10
2019-02-16T21:10:07.618Z,0.90
2019-02-16T21:16:12.003Z,0.90
2019-02-16T21:22:34.976Z,0.80
2019-02-16T21:28:44.985Z,0.70
2019-02-16T21:34:49.080Z,0.70
2019-02-16T21:40:56.143Z,0.70
2019-02-16T21:47:02.799Z,0.60
2019-02-16T21:53:21.351Z,0.60
2019-02-16T21:59:28.907Z,0.50
2019-02-16T22:05:49.500Z,0.50
2019-02-16T22:11:59.555Z,0.40
2019-02-16T22:18:01.964Z,0.20
2019-02-16T22:24:04.220Z,0.10
2019-02-16T22:30:07.267Z,0.00
2019-02-16T22:36:09.396Z,0.00
2019-02-16T22:42:11.664Z,-0.10
2019-02-16T22:48:15.336Z,-0.20
2019-02-16T22:54:17.474Z,-0.30
2019-02-16T23:00:27.501Z,-0.30
2019-02-16T23:06:29.642Z,-0.30
2019-02-16T23:12:31.776Z,-0.30
2019-02-16T23:18:33.968Z,-0.40
2019-02-16T23:24:37.268Z,-0.50
2019-02-16T23:30:39.570Z,-0.50
2019-02-16T23:36:41.717Z,-0.50
2019-02-16T23:42:44.007Z,-0.60
2019-02-16T23:48:48.385Z,-0.70
2019-02-16T23:54:50.712Z,-0.80
